sensor_id;sensor_type;location;lat;lon;timestamp;P1;P2;P0
63707;PMS5003;67643;-34.198;22.084;2023-07-16T00:01:37;9;7;
63707;PMS5003;67643;-34.198;22.084;2023-07-16T00:04:06;9;9;
63707;PMS5003;67643;-34.198;22.084;2023-07-16T00:06:34;9;7;
63707;PMS5003;67643;-34.198;22.084;2023-07-16T00:09:04;9;8;
63707;PMS5003;67643;-34.198;22.084;2023-07-16T00:11:32;11;9;
63707;PMS5003;67643;-34.198;22.084;2023-07-16T00:14:01;9;7;
63707;PMS5003;67643;-34.198;22.084;2023-07-16T00:16:30;10;8;
63707;PMS5003;67643;-34.198;22.084;2023-07-16T00:18:58;9;9;
63707;PMS5003;67643;-34.198;22.084;2023-07-16T00:21:27;7;7;
63707;PMS5003;67643;-34.198;22.084;2023-07-16T00:23:55;9;7;
63707;PMS5003;67643;-34.198;22.084;2023-07-16T00:26:24;8;8;
63707;PMS5003;67643;-34.198;22.084;2023-07-16T00:28:52;6;6;
63707;PMS5003;67643;-34.198;22.084;2023-07-16T00:31:21;9;7;
63707;PMS5003;67643;-34.198;22.084;2023-07-16T00:33:49;8;7;
63707;PMS5003;67643;-34.198;22.084;2023-07-16T00:36:18;7;6;
63707;PMS5003;67643;-34.198;22.084;2023-07-16T00:38:47;11;8;
63707;PMS5003;67643;-34.198;22.084;2023-07-16T00:41:15;11;7;
63707;PMS5003;67643;-34.198;22.084;2023-07-16T00:43:44;7;7;
63707;PMS5003;67643;-34.198;22.084;2023-07-16T00:46:13;8;8;
63707;PMS5003;67643;-34.198;22.084;2023-07-16T00:48:42;7;5;
63707;PMS5003;67643;-34.198;22.084;2023-07-16T00:51:10;8;8;
63707;PMS5003;67643;-34.198;22.084;2023-07-16T00:53:40;8;6;
63707;PMS5003;67643;-34.198;22.084;2023-07-16T00:56:08;9;7;
63707;PMS5003;67643;-34.198;22.084;2023-07-16T00:58:38;9;7;
63707;PMS5003;67643;-34.198;22.084;2023-07-16T01:01:06;8;8;
63707;PMS5003;67643;-34.198;22.084;2023-07-16T01:03:35;8;8;
63707;PMS5003;67643;-34.198;22.084;2023-07-16T01:06:04;8;7;
63707;PMS5003;67643;-34.198;22.084;2023-07-16T01:08:42;9;9;
63707;PMS5003;67643;-34.198;22.084;2023-07-16T01:11:17;8;8;
63707;PMS5003;67643;-34.198;22.084;2023-07-16T01:13:47;7;6;
63707;PMS5003;67643;-34.198;22.084;2023-07-16T01:16:19;9;8;
63707;PMS5003;67643;-34.198;22.084;2023-07-16T01:18:49;8;8;
63707;PMS5003;67643;-34.198;22.084;2023-07-16T01:21:18;8;8;
63707;PMS5003;67643;-34.198;22.084;2023-07-16T01:23:59;8;8;
63707;PMS5003;67643;-34.198;22.084;2023-07-16T01:26:45;5;5;
63707;PMS5003;67643;-34.198;22.084;2023-07-16T01:29:28;7;7;
63707;PMS5003;67643;-34.198;22.084;2023-07-16T01:31:59;7;7;
63707;PMS5003;67643;-34.198;22.084;2023-07-16T01:34:30;9;8;
63707;PMS5003;67643;-34.198;22.084;2023-07-16T01:37:02;7;7;
63707;PMS5003;67643;-34.198;22.084;2023-07-16T01:39:31;8;8;
63707;PMS5003;67643;-34.198;22.084;2023-07-16T01:42:00;9;5;
63707;PMS5003;67643;-34.198;22.084;2023-07-16T01:44:28;10;6;
63707;PMS5003;67643;-34.198;22.084;2023-07-16T01:47:05;8;6;
63707;PMS5003;67643;-34.198;22.084;2023-07-16T01:49:35;8;8;
63707;PMS5003;67643;-34.198;22.084;2023-07-16T01:52:04;10;8;
63707;PMS5003;67643;-34.198;22.084;2023-07-16T01:54:33;8;8;
63707;PMS5003;67643;-34.198;22.084;2023-07-16T01:57:02;6;6;
63707;PMS5003;67643;-34.198;22.084;2023-07-16T01:59:31;6;6;
63707;PMS5003;67643;-34.198;22.084;2023-07-16T02:01:59;6;6;
63707;PMS5003;67643;-34.198;22.084;2023-07-16T02:04:28;6;6;
63707;PMS5003;67643;-34.198;22.084;2023-07-16T02:06:56;7;7;
63707;PMS5003;67643;-34.198;22.084;2023-07-16T02:09:24;5;4;
63707;PMS5003;67643;-34.198;22.084;2023-07-16T02:11:54;10;7;
63707;PMS5003;67643;-34.198;22.084;2023-07-16T02:14:22;11;8;
63707;PMS5003;67643;-34.198;22.084;2023-07-16T02:16:50;9;7;
63707;PMS5003;67643;-34.198;22.084;2023-07-16T02:19:18;7;7;
63707;PMS5003;67643;-34.198;22.084;2023-07-16T02:21:47;7;5;
63707;PMS5003;67643;-34.198;22.084;2023-07-16T02:24:16;6;5;
63707;PMS5003;67643;-34.198;22.084;2023-07-16T02:26:45;6;6;
63707;PMS5003;67643;-34.198;22.084;2023-07-16T02:29:13;5;5;
63707;PMS5003;67643;-34.198;22.084;2023-07-16T02:31:42;5;5;
63707;PMS5003;67643;-34.198;22.084;2023-07-16T02:34:11;6;6;
63707;PMS5003;67643;-34.198;22.084;2023-07-16T02:36:39;9;6;
63707;PMS5003;67643;-34.198;22.084;2023-07-16T02:39:08;7;5;
63707;PMS5003;67643;-34.198;22.084;2023-07-16T02:41:36;5;5;
63707;PMS5003;67643;-34.198;22.084;2023-07-16T02:44:05;8;7;
63707;PMS5003;67643;-34.198;22.084;2023-07-16T02:46:36;7;7;
63707;PMS5003;67643;-34.198;22.084;2023-07-16T02:49:04;6;6;
63707;PMS5003;67643;-34.198;22.084;2023-07-16T02:51:33;9;9;
63707;PMS5003;67643;-34.198;22.084;2023-07-16T02:54:01;7;5;
63707;PMS5003;67643;-34.198;22.084;2023-07-16T02:56:30;10;9;
63707;PMS5003;67643;-34.198;22.084;2023-07-16T02:58:58;12;7;
63707;PMS5003;67643;-34.198;22.084;2023-07-16T03:01:27;8;6;
63707;PMS5003;67643;-34.198;22.084;2023-07-16T03:03:56;6;6;
63707;PMS5003;67643;-34.198;22.084;2023-07-16T03:06:24;9;6;
63707;PMS5003;67643;-34.198;22.084;2023-07-16T03:08:53;7;7;
63707;PMS5003;67643;-34.198;22.084;2023-07-16T03:11:21;5;5;
63707;PMS5003;67643;-34.198;22.084;2023-07-16T03:13:51;7;5;
63707;PMS5003;67643;-34.198;22.084;2023-07-16T03:16:19;5;4;
63707;PMS5003;67643;-34.198;22.084;2023-07-16T03:18:48;6;6;
63707;PMS5003;67643;-34.198;22.084;2023-07-16T03:21:17;7;7;
63707;PMS5003;67643;-34.198;22.084;2023-07-16T03:23:45;6;5;
63707;PMS5003;67643;-34.198;22.084;2023-07-16T03:26:14;8;6;
63707;PMS5003;67643;-34.198;22.084;2023-07-16T03:28:42;7;6;
63707;PMS5003;67643;-34.198;22.084;2023-07-16T03:31:11;6;6;
63707;PMS5003;67643;-34.198;22.084;2023-07-16T03:33:39;7;5;
63707;PMS5003;67643;-34.198;22.084;2023-07-16T03:36:08;9;6;
63707;PMS5003;67643;-34.198;22.084;2023-07-16T03:38:36;4;4;
63707;PMS5003;67643;-34.198;22.084;2023-07-16T03:41:05;5;5;
63707;PMS5003;67643;-34.198;22.084;2023-07-16T03:43:34;7;6;
63707;PMS5003;67643;-34.198;22.084;2023-07-16T03:46:02;7;6;
63707;PMS5003;67643;-34.198;22.084;2023-07-16T03:48:31;3;3;
63707;PMS5003;67643;-34.198;22.084;2023-07-16T03:50:59;9;8;
63707;PMS5003;67643;-34.198;22.084;2023-07-16T03:53:28;6;6;
63707;PMS5003;67643;-34.198;22.084;2023-07-16T03:55:56;7;7;
63707;PMS5003;67643;-34.198;22.084;2023-07-16T03:58:25;7;6;
63707;PMS5003;67643;-34.198;22.084;2023-07-16T04:00:54;6;4;
63707;PMS5003;67643;-34.198;22.084;2023-07-16T04:03:22;7;7;
63707;PMS5003;67643;-34.198;22.084;2023-07-16T04:05:51;7;6;
63707;PMS5003;67643;-34.198;22.084;2023-07-16T04:08:19;6;6;
63707;PMS5003;67643;-34.198;22.084;2023-07-16T04:10:48;7;6;
63707;PMS5003;67643;-34.198;22.084;2023-07-16T04:13:16;6;5;
63707;PMS5003;67643;-34.198;22.084;2023-07-16T04:15:46;5;5;
63707;PMS5003;67643;-34.198;22.084;2023-07-16T04:18:15;7;5;
63707;PMS5003;67643;-34.198;22.084;2023-07-16T04:20:43;9;7;
63707;PMS5003;67643;-34.198;22.084;2023-07-16T04:23:11;6;6;
63707;PMS5003;67643;-34.198;22.084;2023-07-16T04:25:40;7;6;
63707;PMS5003;67643;-34.198;22.084;2023-07-16T04:28:09;5;5;
63707;PMS5003;67643;-34.198;22.084;2023-07-16T04:30:38;6;6;
63707;PMS5003;67643;-34.198;22.084;2023-07-16T04:33:06;5;5;
63707;PMS5003;67643;-34.198;22.084;2023-07-16T04:35:35;9;5;
63707;PMS5003;67643;-34.198;22.084;2023-07-16T04:38:04;5;5;
63707;PMS5003;67643;-34.198;22.084;2023-07-16T04:40:33;8;6;
63707;PMS5003;67643;-34.198;22.084;2023-07-16T04:43:01;7;7;
63707;PMS5003;67643;-34.198;22.084;2023-07-16T04:45:30;5;5;
63707;PMS5003;67643;-34.198;22.084;2023-07-16T04:47:58;5;5;
63707;PMS5003;67643;-34.198;22.084;2023-07-16T04:50:27;6;6;
63707;PMS5003;67643;-34.198;22.084;2023-07-16T04:52:56;6;6;
63707;PMS5003;67643;-34.198;22.084;2023-07-16T04:55:25;8;6;
63707;PMS5003;67643;-34.198;22.084;2023-07-16T04:57:53;5;4;
63707;PMS5003;67643;-34.198;22.084;2023-07-16T05:00:22;7;5;
63707;PMS5003;67643;-34.198;22.084;2023-07-16T05:02:51;6;4;
63707;PMS5003;67643;-34.198;22.084;2023-07-16T05:05:19;11;8;
63707;PMS5003;67643;-34.198;22.084;2023-07-16T05:07:48;4;4;
63707;PMS5003;67643;-34.198;22.084;2023-07-16T05:10:16;5;5;
63707;PMS5003;67643;-34.198;22.084;2023-07-16T05:12:45;6;6;
63707;PMS5003;67643;-34.198;22.084;2023-07-16T05:15:13;5;5;
63707;PMS5003;67643;-34.198;22.084;2023-07-16T05:17:42;4;4;
63707;PMS5003;67643;-34.198;22.084;2023-07-16T05:20:11;8;7;
63707;PMS5003;67643;-34.198;22.084;2023-07-16T05:22:40;5;5;
63707;PMS5003;67643;-34.198;22.084;2023-07-16T05:25:08;9;6;
63707;PMS5003;67643;-34.198;22.084;2023-07-16T05:27:37;6;5;
63707;PMS5003;67643;-34.198;22.084;2023-07-16T05:30:06;7;5;
63707;PMS5003;67643;-34.198;22.084;2023-07-16T05:32:35;6;6;
63707;PMS5003;67643;-34.198;22.084;2023-07-16T05:35:04;7;5;
63707;PMS5003;67643;-34.198;22.084;2023-07-16T05:37:33;5;4;
63707;PMS5003;67643;-34.198;22.084;2023-07-16T05:40:01;5;5;
63707;PMS5003;67643;-34.198;22.084;2023-07-16T05:42:31;7;5;
63707;PMS5003;67643;-34.198;22.084;2023-07-16T05:44:59;5;4;
63707;PMS5003;67643;-34.198;22.084;2023-07-16T05:47:28;5;4;
63707;PMS5003;67643;-34.198;22.084;2023-07-16T05:49:57;7;5;
63707;PMS5003;67643;-34.198;22.084;2023-07-16T05:52:25;5;2;
63707;PMS5003;67643;-34.198;22.084;2023-07-16T05:54:54;4;4;
63707;PMS5003;67643;-34.198;22.084;2023-07-16T05:57:22;7;5;
63707;PMS5003;67643;-34.198;22.084;2023-07-16T05:59:51;7;7;
63707;PMS5003;67643;-34.198;22.084;2023-07-16T06:02:19;5;5;
63707;PMS5003;67643;-34.198;22.084;2023-07-16T06:04:48;5;4;
63707;PMS5003;67643;-34.198;22.084;2023-07-16T06:07:17;5;5;
63707;PMS5003;67643;-34.198;22.084;2023-07-16T06:09:45;8;5;
63707;PMS5003;67643;-34.198;22.084;2023-07-16T06:12:14;7;5;
63707;PMS5003;67643;-34.198;22.084;2023-07-16T06:14:43;5;4;
63707;PMS5003;67643;-34.198;22.084;2023-07-16T06:17:11;5;3;
63707;PMS5003;67643;-34.198;22.084;2023-07-16T06:19:40;5;4;
63707;PMS5003;67643;-34.198;22.084;2023-07-16T06:22:09;5;5;
63707;PMS5003;67643;-34.198;22.084;2023-07-16T06:24:37;3;3;
63707;PMS5003;67643;-34.198;22.084;2023-07-16T06:27:06;3;3;
63707;PMS5003;67643;-34.198;22.084;2023-07-16T06:29:35;5;5;
63707;PMS5003;67643;-34.198;22.084;2023-07-16T06:32:03;5;4;
63707;PMS5003;67643;-34.198;22.084;2023-07-16T06:34:33;3;3;
63707;PMS5003;67643;-34.198;22.084;2023-07-16T06:37:01;7;5;
63707;PMS5003;67643;-34.198;22.084;2023-07-16T06:39:30;3;3;
63707;PMS5003;67643;-34.198;22.084;2023-07-16T06:41:59;4;4;
63707;PMS5003;67643;-34.198;22.084;2023-07-16T06:44:27;6;5;
63707;PMS5003;67643;-34.198;22.084;2023-07-16T06:46:55;6;4;
63707;PMS5003;67643;-34.198;22.084;2023-07-16T06:49:24;2;2;
63707;PMS5003;67643;-34.198;22.084;2023-07-16T06:51:53;5;3;
63707;PMS5003;67643;-34.198;22.084;2023-07-16T06:54:21;2;2;
63707;PMS5003;67643;-34.198;22.084;2023-07-16T06:56:50;3;3;
63707;PMS5003;67643;-34.198;22.084;2023-07-16T06:59:18;4;4;
63707;PMS5003;67643;-34.198;22.084;2023-07-16T07:01:47;4;4;
63707;PMS5003;67643;-34.198;22.084;2023-07-16T07:04:15;4;2;
63707;PMS5003;67643;-34.198;22.084;2023-07-16T07:06:44;7;4;
63707;PMS5003;67643;-34.198;22.084;2023-07-16T07:09:12;4;4;
63707;PMS5003;67643;-34.198;22.084;2023-07-16T07:11:41;3;3;
63707;PMS5003;67643;-34.198;22.084;2023-07-16T07:14:09;4;4;
63707;PMS5003;67643;-34.198;22.084;2023-07-16T07:16:38;4;4;
63707;PMS5003;67643;-34.198;22.084;2023-07-16T07:19:06;5;3;
63707;PMS5003;67643;-34.198;22.084;2023-07-16T07:21:35;5;5;
63707;PMS5003;67643;-34.198;22.084;2023-07-16T07:24:04;13;7;
63707;PMS5003;67643;-34.198;22.084;2023-07-16T07:26:32;13;13;
63707;PMS5003;67643;-34.198;22.084;2023-07-16T07:29:01;11;10;
63707;PMS5003;67643;-34.198;22.084;2023-07-16T07:31:29;19;19;
63707;PMS5003;67643;-34.198;22.084;2023-07-16T07:33:58;19;16;
63707;PMS5003;67643;-34.198;22.084;2023-07-16T07:36:27;18;13;
63707;PMS5003;67643;-34.198;22.084;2023-07-16T07:38:55;17;16;
63707;PMS5003;67643;-34.198;22.084;2023-07-16T07:41:23;20;17;
63707;PMS5003;67643;-34.198;22.084;2023-07-16T07:43:52;20;19;
63707;PMS5003;67643;-34.198;22.084;2023-07-16T07:46:20;21;15;
63707;PMS5003;67643;-34.198;22.084;2023-07-16T07:48:49;20;16;
63707;PMS5003;67643;-34.198;22.084;2023-07-16T07:51:17;22;19;
63707;PMS5003;67643;-34.198;22.084;2023-07-16T07:53:46;24;21;
63707;PMS5003;67643;-34.198;22.084;2023-07-16T07:56:14;18;17;
63707;PMS5003;67643;-34.198;22.084;2023-07-16T07:58:42;18;16;
63707;PMS5003;67643;-34.198;22.084;2023-07-16T08:01:11;15;14;
63707;PMS5003;67643;-34.198;22.084;2023-07-16T08:03:40;18;15;
63707;PMS5003;67643;-34.198;22.084;2023-07-16T08:06:08;20;14;
63707;PMS5003;67643;-34.198;22.084;2023-07-16T08:08:37;18;16;
63707;PMS5003;67643;-34.198;22.084;2023-07-16T08:11:05;12;11;
63707;PMS5003;67643;-34.198;22.084;2023-07-16T08:13:34;16;14;
63707;PMS5003;67643;-34.198;22.084;2023-07-16T08:16:03;15;12;
63707;PMS5003;67643;-34.198;22.084;2023-07-16T08:18:31;13;11;
63707;PMS5003;67643;-34.198;22.084;2023-07-16T08:21:00;13;11;
63707;PMS5003;67643;-34.198;22.084;2023-07-16T08:23:29;13;12;
63707;PMS5003;67643;-34.198;22.084;2023-07-16T08:25:57;19;16;
63707;PMS5003;67643;-34.198;22.084;2023-07-16T08:28:26;12;12;
63707;PMS5003;67643;-34.198;22.084;2023-07-16T08:30:54;15;13;
63707;PMS5003;67643;-34.198;22.084;2023-07-16T08:33:23;15;11;
63707;PMS5003;67643;-34.198;22.084;2023-07-16T08:35:51;16;12;
63707;PMS5003;67643;-34.198;22.084;2023-07-16T08:38:20;12;10;
63707;PMS5003;67643;-34.198;22.084;2023-07-16T08:40:49;13;10;
63707;PMS5003;67643;-34.198;22.084;2023-07-16T08:43:18;10;9;
63707;PMS5003;67643;-34.198;22.084;2023-07-16T08:45:47;9;7;
63707;PMS5003;67643;-34.198;22.084;2023-07-16T08:48:17;11;10;
63707;PMS5003;67643;-34.198;22.084;2023-07-16T08:50:45;10;9;
63707;PMS5003;67643;-34.198;22.084;2023-07-16T08:53:15;10;9;
63707;PMS5003;67643;-34.198;22.084;2023-07-16T08:55:44;16;8;
63707;PMS5003;67643;-34.198;22.084;2023-07-16T08:58:12;11;11;
63707;PMS5003;67643;-34.198;22.084;2023-07-16T09:00:42;10;6;
63707;PMS5003;67643;-34.198;22.084;2023-07-16T09:03:12;13;11;
63707;PMS5003;67643;-34.198;22.084;2023-07-16T09:05:40;10;8;
63707;PMS5003;67643;-34.198;22.084;2023-07-16T09:08:09;8;7;
63707;PMS5003;67643;-34.198;22.084;2023-07-16T09:10:39;8;7;
63707;PMS5003;67643;-34.198;22.084;2023-07-16T09:13:08;7;6;
63707;PMS5003;67643;-34.198;22.084;2023-07-16T09:15:37;7;7;
63707;PMS5003;67643;-34.198;22.084;2023-07-16T09:18:06;8;7;
63707;PMS5003;67643;-34.198;22.084;2023-07-16T09:20:34;9;8;
63707;PMS5003;67643;-34.198;22.084;2023-07-16T09:23:03;6;6;
63707;PMS5003;67643;-34.198;22.084;2023-07-16T09:25:32;8;7;
63707;PMS5003;67643;-34.198;22.084;2023-07-16T09:28:01;6;5;
63707;PMS5003;67643;-34.198;22.084;2023-07-16T09:30:30;8;8;
63707;PMS5003;67643;-34.198;22.084;2023-07-16T09:33:09;4;4;
63707;PMS5003;67643;-34.198;22.084;2023-07-16T09:35:38;8;7;
63707;PMS5003;67643;-34.198;22.084;2023-07-16T09:38:07;4;4;
63707;PMS5003;67643;-34.198;22.084;2023-07-16T09:40:37;9;6;
63707;PMS5003;67643;-34.198;22.084;2023-07-16T09:43:06;6;5;
63707;PMS5003;67643;-34.198;22.084;2023-07-16T09:45:35;6;5;
63707;PMS5003;67643;-34.198;22.084;2023-07-16T09:48:04;4;4;
63707;PMS5003;67643;-34.198;22.084;2023-07-16T09:50:34;6;6;
63707;PMS5003;67643;-34.198;22.084;2023-07-16T09:53:04;6;6;
63707;PMS5003;67643;-34.198;22.084;2023-07-16T09:55:33;7;7;
63707;PMS5003;67643;-34.198;22.084;2023-07-16T09:58:03;5;5;
63707;PMS5003;67643;-34.198;22.084;2023-07-16T10:00:39;5;5;
63707;PMS5003;67643;-34.198;22.084;2023-07-16T10:03:08;7;7;
63707;PMS5003;67643;-34.198;22.084;2023-07-16T10:05:37;4;4;
63707;PMS5003;67643;-34.198;22.084;2023-07-16T10:08:14;5;5;
63707;PMS5003;67643;-34.198;22.084;2023-07-16T10:10:45;6;5;
63707;PMS5003;67643;-34.198;22.084;2023-07-16T10:13:14;6;6;
63707;PMS5003;67643;-34.198;22.084;2023-07-16T10:15:59;7;5;
63707;PMS5003;67643;-34.198;22.084;2023-07-16T10:18:27;6;5;
63707;PMS5003;67643;-34.198;22.084;2023-07-16T10:21:05;6;5;
63707;PMS5003;67643;-34.198;22.084;2023-07-16T10:23:38;8;4;
63707;PMS5003;67643;-34.198;22.084;2023-07-16T10:26:09;4;4;
63707;PMS5003;67643;-34.198;22.084;2023-07-16T10:28:38;7;4;
63707;PMS5003;67643;-34.198;22.084;2023-07-16T10:34:21;7;4;
63707;PMS5003;67643;-34.198;22.084;2023-07-16T21:35:41;8;5;
63707;PMS5003;67643;-34.198;22.084;2023-07-16T21:38:09;8;6;
63707;PMS5003;67643;-34.198;22.084;2023-07-16T21:40:38;9;6;
63707;PMS5003;67643;-34.198;22.084;2023-07-16T21:43:07;12;9;
63707;PMS5003;67643;-34.198;22.084;2023-07-16T21:45:35;7;6;
63707;PMS5003;67643;-34.198;22.084;2023-07-16T21:48:05;10;7;
63707;PMS5003;67643;-34.198;22.084;2023-07-16T21:50:34;8;8;
63707;PMS5003;67643;-34.198;22.084;2023-07-16T21:53:02;10;8;
63707;PMS5003;67643;-34.198;22.084;2023-07-16T21:55:40;8;6;
63707;PMS5003;67643;-34.198;22.084;2023-07-16T21:58:09;5;5;
63707;PMS5003;67643;-34.198;22.084;2023-07-16T22:00:38;6;6;
63707;PMS5003;67643;-34.198;22.084;2023-07-16T22:03:06;5;5;
63707;PMS5003;67643;-34.198;22.084;2023-07-16T22:05:35;6;6;
63707;PMS5003;67643;-34.198;22.084;2023-07-16T22:08:04;7;7;
63707;PMS5003;67643;-34.198;22.084;2023-07-16T22:10:32;8;7;
63707;PMS5003;67643;-34.198;22.084;2023-07-16T22:13:00;6;6;
63707;PMS5003;67643;-34.198;22.084;2023-07-16T22:15:29;7;7;
63707;PMS5003;67643;-34.198;22.084;2023-07-16T22:17:57;8;7;
63707;PMS5003;67643;-34.198;22.084;2023-07-16T22:20:26;9;7;
63707;PMS5003;67643;-34.198;22.084;2023-07-16T22:22:55;6;6;
63707;PMS5003;67643;-34.198;22.084;2023-07-16T22:25:23;6;6;
63707;PMS5003;67643;-34.198;22.084;2023-07-16T22:27:52;8;7;
63707;PMS5003;67643;-34.198;22.084;2023-07-16T22:30:20;5;5;
63707;PMS5003;67643;-34.198;22.084;2023-07-16T22:32:48;12;7;
63707;PMS5003;67643;-34.198;22.084;2023-07-16T22:35:17;8;8;
63707;PMS5003;67643;-34.198;22.084;2023-07-16T22:37:46;9;8;
63707;PMS5003;67643;-34.198;22.084;2023-07-16T22:40:14;8;5;
63707;PMS5003;67643;-34.198;22.084;2023-07-16T22:42:43;8;7;
63707;PMS5003;67643;-34.198;22.084;2023-07-16T22:45:11;6;6;
63707;PMS5003;67643;-34.198;22.084;2023-07-16T22:47:40;6;5;
63707;PMS5003;67643;-34.198;22.084;2023-07-16T22:50:08;7;6;
63707;PMS5003;67643;-34.198;22.084;2023-07-16T22:52:37;8;8;
63707;PMS5003;67643;-34.198;22.084;2023-07-16T22:55:06;8;8;
63707;PMS5003;67643;-34.198;22.084;2023-07-16T22:57:35;7;7;
63707;PMS5003;67643;-34.198;22.084;2023-07-16T23:00:04;7;6;
63707;PMS5003;67643;-34.198;22.084;2023-07-16T23:02:34;6;6;
63707;PMS5003;67643;-34.198;22.084;2023-07-16T23:05:02;10;8;
63707;PMS5003;67643;-34.198;22.084;2023-07-16T23:07:31;7;7;
63707;PMS5003;67643;-34.198;22.084;2023-07-16T23:10:00;10;10;
63707;PMS5003;67643;-34.198;22.084;2023-07-16T23:12:29;6;6;
63707;PMS5003;67643;-34.198;22.084;2023-07-16T23:14:57;10;9;
63707;PMS5003;67643;-34.198;22.084;2023-07-16T23:17:25;6;6;
63707;PMS5003;67643;-34.198;22.084;2023-07-16T23:19:54;7;7;
63707;PMS5003;67643;-34.198;22.084;2023-07-16T23:22:23;9;8;
63707;PMS5003;67643;-34.198;22.084;2023-07-16T23:24:52;8;8;
63707;PMS5003;67643;-34.198;22.084;2023-07-16T23:27:20;9;8;
63707;PMS5003;67643;-34.198;22.084;2023-07-16T23:29:49;7;7;
63707;PMS5003;67643;-34.198;22.084;2023-07-16T23:32:17;8;8;
63707;PMS5003;67643;-34.198;22.084;2023-07-16T23:34:46;10;8;
63707;PMS5003;67643;-34.198;22.084;2023-07-16T23:37:14;8;6;
63707;PMS5003;67643;-34.198;22.084;2023-07-16T23:39:43;8;6;
63707;PMS5003;67643;-34.198;22.084;2023-07-16T23:42:11;7;7;
63707;PMS5003;67643;-34.198;22.084;2023-07-16T23:44:40;7;6;
63707;PMS5003;67643;-34.198;22.084;2023-07-16T23:47:08;6;6;
63707;PMS5003;67643;-34.198;22.084;2023-07-16T23:49:37;9;8;
63707;PMS5003;67643;-34.198;22.084;2023-07-16T23:52:06;8;6;
63707;PMS5003;67643;-34.198;22.084;2023-07-16T23:54:34;7;7;
63707;PMS5003;67643;-34.198;22.084;2023-07-16T23:57:03;10;8;
63707;PMS5003;67643;-34.198;22.084;2023-07-16T23:59:31;5;5;
